Time;durP1;ratioP1;P1;durP2;ratioP2;P2;SDS_P1;SDS_P2;PMS_P1;PMS_P2;Temp;Humidity;BMP_temperature;BMP_pressure;BME280_temperature;BME280_humidity;BME280_pressure;Samples;Min_cycle;Max_cycle;Signal;HPM_P1;HPM_P2
2022/07/18 00:01:28;;;;;;;0.50;0.40;;;;;;;23.02;43.92;94266.03;4999114;28;20033;-92
2022/07/18 00:03:54;;;;;;;0.57;0.57;;;;;;;23.01;43.86;94259.03;4999698;28;20029;-93
2022/07/18 00:06:19;;;;;;;0.93;0.50;;;;;;;23.00;43.94;94252.03;4999003;28;20044;-93
2022/07/18 00:08:45;;;;;;;0.60;0.60;;;;;;;23.01;43.98;94257.03;4999578;28;20029;-93
2022/07/18 00:11:10;;;;;;;0.43;0.40;;;;;;;22.99;43.87;94259.56;4999443;28;20434;-93
2022/07/18 00:13:35;;;;;;;1.10;0.40;;;;;;;22.98;43.96;94257.31;4999673;28;20040;-92
2022/07/18 00:16:01;;;;;;;0.77;0.60;;;;;;;22.98;43.85;94255.31;4999550;28;20045;-93
2022/07/18 00:18:26;;;;;;;0.85;0.60;;;;;;;22.98;43.71;94249.78;5015016;28;20086;-93
2022/07/18 00:20:52;;;;;;;0.40;0.40;;;;;;;22.98;43.72;94246.28;5015963;28;20510;-93
2022/07/18 00:23:17;;;;;;;0.82;0.57;;;;;;;22.98;43.82;94249.78;5014720;28;20398;-94
2022/07/18 00:25:43;;;;;;;0.52;0.52;;;;;;;22.96;43.83;94240.53;5015412;28;20032;-93
2022/07/18 00:28:11;;;;;;;0.82;0.50;;;;;;;22.96;43.82;94240.53;5015118;28;20044;-93
2022/07/18 00:30:38;;;;;;;1.38;0.70;;;;;;;22.98;43.62;94243.53;5026038;28;20032;-94
2022/07/18 00:33:03;;;;;;;1.25;0.60;;;;;;;22.96;43.64;94244.03;4998423;28;20067;-94
2022/07/18 00:35:29;;;;;;;0.45;0.45;;;;;;;22.98;43.90;94249.78;4998956;28;20391;-95
2022/07/18 00:37:54;;;;;;;0.65;0.60;;;;;;;22.96;43.77;94249.56;4999128;28;20483;-93
2022/07/18 00:40:20;;;;;;;0.50;0.50;;;;;;;22.95;43.89;94244.59;4998755;28;20529;-92
2022/07/18 00:42:45;;;;;;;0.47;0.47;;;;;;;22.96;43.89;94246.06;4998078;28;20494;-92
2022/07/18 00:45:11;;;;;;;0.60;0.50;;;;;;;22.96;43.88;94248.81;4997863;28;20044;-92
2022/07/18 00:47:36;;;;;;;0.40;0.40;;;;;;;22.95;43.74;94244.59;4998792;28;20037;-93
2022/07/18 00:50:03;;;;;;;0.50;0.50;;;;;;;22.97;43.48;94250.31;4999417;28;20559;-93
2022/07/18 00:52:29;;;;;;;0.47;0.40;;;;;;;22.95;43.58;94245.31;4999632;28;20041;-92
2022/07/18 00:54:54;;;;;;;0.52;0.52;;;;;;;22.96;43.67;94252.31;5014980;28;20044;-94
2022/07/18 00:57:19;;;;;;;0.57;0.50;;;;;;;22.95;43.64;94247.34;5014768;28;20102;-93
2022/07/18 01:02:29;;;;;;;0.60;0.60;;;;;;;22.95;43.55;94245.31;5030987;28;20052;-92
2022/07/18 01:04:54;;;;;;;0.95;0.35;;;;;;;22.92;43.65;94248.38;4998528;28;20531;-94
2022/07/18 01:07:20;;;;;;;0.30;0.30;;;;;;;22.94;43.71;94248.63;4997737;28;20545;-94
2022/07/18 01:09:45;;;;;;;0.40;0.40;;;;;;;22.93;43.21;94250.63;5015340;28;20025;-93
2022/07/18 01:12:11;;;;;;;0.40;0.40;;;;;;;22.93;43.55;94253.38;4998397;28;20029;-92
2022/07/18 01:14:36;;;;;;;0.95;0.70;;;;;;;22.94;43.65;94254.13;4998001;28;20037;-93
2022/07/18 01:17:01;;;;;;;0.70;0.50;;;;;;;22.90;43.76;94255.16;4998529;28;20025;-93
2022/07/18 01:19:27;;;;;;;0.40;0.40;;;;;;;22.93;43.69;94239.59;5015245;28;20029;-93
2022/07/18 01:21:52;;;;;;;0.40;0.40;;;;;;;22.93;43.69;94252.63;5018308;28;20032;-92
2022/07/18 01:24:18;;;;;;;0.55;0.52;;;;;;;22.91;43.35;94255.91;5017280;28;20036;-93
2022/07/18 01:26:43;;;;;;;0.60;0.60;;;;;;;22.92;43.73;94254.66;5017552;28;20070;-94
2022/07/18 01:29:09;;;;;;;0.40;0.40;;;;;;;22.88;43.84;94252.19;5017108;28;20417;-93
2022/07/18 01:31:34;;;;;;;0.70;0.45;;;;;;;22.90;43.58;94249.66;5018041;28;20478;-92
2022/07/18 01:34:00;;;;;;;0.57;0.50;;;;;;;22.90;43.45;94240.63;5016571;28;20513;-94
2022/07/18 01:36:25;;;;;;;0.38;0.38;;;;;;;22.92;43.67;94245.63;4996462;28;20573;-92
2022/07/18 01:38:51;;;;;;;0.55;0.50;;;;;;;22.88;43.69;94248.69;4998416;28;20125;-93
2022/07/18 01:41:17;;;;;;;0.80;0.50;;;;;;;22.89;43.72;94242.66;5013568;28;20582;-93
2022/07/18 01:43:46;;;;;;;0.45;0.40;;;;;;;22.88;43.84;94240.41;5014580;28;20033;-92
2022/07/18 01:46:11;;;;;;;0.80;0.50;;;;;;;22.87;43.82;94242.41;4997676;28;20043;-93
2022/07/18 01:48:38;;;;;;;0.68;0.60;;;;;;;22.88;43.65;94240.41;4998122;28;20037;-91
2022/07/18 01:51:04;;;;;;;0.57;0.40;;;;;;;22.87;43.68;94247.19;4998197;28;20068;-93
2022/07/18 01:53:29;;;;;;;0.60;0.60;;;;;;;22.88;43.55;94241.16;4997875;28;20104;-93
2022/07/18 01:55:55;;;;;;;0.40;0.40;;;;;;;22.90;43.64;94233.09;4997854;28;20037;-93
2022/07/18 01:58:20;;;;;;;0.80;0.60;;;;;;;22.87;43.53;94231.38;5015899;28;20044;-91
2022/07/18 02:00:46;;;;;;;0.63;0.50;;;;;;;22.86;43.35;94229.16;5001366;28;20037;-93
2022/07/18 02:03:11;;;;;;;0.60;0.60;;;;;;;22.87;43.64;94238.91;5001308;28;20033;-93
2022/07/18 02:05:36;;;;;;;0.68;0.60;;;;;;;22.89;43.43;94233.63;5001819;28;20476;-94
2022/07/18 02:08:02;;;;;;;0.88;0.70;;;;;;;22.86;43.60;94237.44;5001485;28;20025;-92
2022/07/18 02:10:27;;;;;;;0.60;0.50;;;;;;;22.85;43.76;94239.44;5001460;28;20091;-94
2022/07/18 02:12:53;;;;;;;0.50;0.47;;;;;;;22.86;43.68;94234.66;5001229;28;20514;-92
2022/07/18 02:15:18;;;;;;;0.50;0.50;;;;;;;22.84;43.84;94240.69;5001378;28;20511;-92
2022/07/18 02:17:43;;;;;;;1.08;0.60;;;;;;;22.85;43.72;94233.91;5001146;28;20434;-92
2022/07/18 02:20:10;;;;;;;0.57;0.50;;;;;;;22.85;43.71;94238.69;5002980;28;20530;-93
2022/07/18 02:22:36;;;;;;;0.70;0.60;;;;;;;22.82;43.60;94240.47;5018902;28;20033;-92
2022/07/18 02:25:01;;;;;;;0.85;0.70;;;;;;;22.86;43.52;94238.16;5017564;28;20040;-93
2022/07/18 02:27:27;;;;;;;0.65;0.65;;;;;;;22.84;43.84;94240.69;5033721;28;20037;-92
2022/07/18 02:29:52;;;;;;;0.70;0.60;;;;;;;22.84;43.64;94231.69;5017924;28;20045;-93
2022/07/18 02:32:18;;;;;;;0.40;0.40;;;;;;;22.85;43.25;94238.69;5017426;28;20063;-93
2022/07/18 02:34:44;;;;;;;0.50;0.50;;;;;;;22.83;43.64;94241.97;5018215;28;20044;-93
2022/07/18 02:37:10;;;;;;;0.40;0.40;;;;;;;22.83;43.59;94239.22;5016701;28;20029;-92
2022/07/18 02:39:36;;;;;;;1.42;0.52;;;;;;;22.82;43.46;94239.72;5011539;28;20033;-93
2022/07/18 02:42:01;;;;;;;0.75;0.60;;;;;;;22.82;43.55;94234.97;5017021;28;20037;-93
2022/07/18 02:44:27;;;;;;;0.60;0.40;;;;;;;22.83;43.57;94230.19;5000602;28;20037;-93
2022/07/18 02:46:52;;;;;;;0.80;0.57;;;;;;;22.83;43.37;94232.94;5000966;28;20056;-92
2022/07/18 02:49:27;;;;;;;0.60;0.50;;;;;;;22.82;43.61;94229.44;5000244;28;20036;-93
2022/07/18 02:51:56;;;;;;;0.70;0.50;;;;;;;22.81;43.36;94227.94;5004015;28;20059;-92
2022/07/18 02:54:23;;;;;;;3.22;0.50;;;;;;;22.84;43.30;94232.44;5016034;28;20040;-93
2022/07/18 02:56:48;;;;;;;0.45;0.43;;;;;;;22.83;43.69;94230.94;5017208;28;20190;-92
2022/07/18 02:59:14;;;;;;;0.70;0.60;;;;;;;22.83;43.28;94222.66;5000358;28;20033;-93
2022/07/18 03:01:39;;;;;;;1.02;0.52;;;;;;;22.80;43.35;94231.22;5017421;28;20517;-92
2022/07/18 03:04:05;;;;;;;1.48;0.60;;;;;;;22.78;44.01;94225.47;5016887;28;20449;-92
2022/07/18 03:06:31;;;;;;;0.90;0.52;;;;;;;22.80;43.42;94223.69;5000120;28;20044;-93
2022/07/18 03:08:57;;;;;;;1.60;0.50;;;;;;;22.79;43.53;94224.22;4999930;28;20139;-93
2022/07/18 03:11:22;;;;;;;0.73;0.50;;;;;;;22.77;43.48;94216.47;5016064;28;20056;-93
2022/07/18 03:13:47;;;;;;;0.57;0.50;;;;;;;22.79;43.42;94224.22;5000825;28;20029;-93
2022/07/18 03:16:14;;;;;;;0.40;0.40;;;;;;;22.78;43.39;94222.72;4999870;28;20041;-91
2022/07/18 03:18:39;;;;;;;0.50;0.50;;;;;;;22.80;43.54;94220.94;5011280;28;20025;-91
2022/07/18 03:21:05;;;;;;;2.45;1.80;;;;;;;22.74;39.79;94220.22;5005597;28;20063;-92
2022/07/18 03:23:30;;;;;;;31.65;27.63;;;;;;;22.52;39.38;94232.25;5027352;28;20044;-94
2022/07/18 03:25:56;;;;;;;73.00;55.85;;;;;;;22.50;40.85;94226.56;5001074;28;20083;-94
2022/07/18 03:28:23;;;;;;;4.68;2.65;;;;;;;22.37;40.29;94222.94;4996072;28;20400;-93
2022/07/18 03:30:48;;;;;;;3.45;2.85;;;;;;;22.40;39.77;94221.91;4979950;28;20052;-93
2022/07/18 03:33:14;;;;;;;3.72;2.40;;;;;;;22.37;40.49;94228.44;4995770;28;20026;-92
2022/07/18 03:35:39;;;;;;;2.50;1.67;;;;;;;22.33;40.05;94219.72;4995628;28;20064;-94
2022/07/18 03:38:05;;;;;;;2.47;2.05;;;;;;;22.31;39.79;94225.72;4980815;28;20475;-94
2022/07/18 03:40:30;;;;;;;1.85;1.60;;;;;;;22.30;39.55;94221.50;4979903;28;20091;-92
2022/07/18 03:42:56;;;;;;;1.85;1.42;;;;;;;22.26;39.22;94226.56;4980362;28;20045;-93
2022/07/18 03:45:21;;;;;;;16.70;1.58;;;;;;;22.29;37.69;94230.28;4998463;28;20041;-92
2022/07/18 03:47:47;;;;;;;2.25;1.90;;;;;;;22.07;39.08;94229.25;5015972;28;20032;-95
2022/07/18 03:50:12;;;;;;;3.72;1.73;;;;;;;22.06;38.75;94235.28;4999032;28;20036;-93
2022/07/18 03:52:37;;;;;;;5.65;1.30;;;;;;;22.02;38.89;94241.06;5016533;28;20458;-94
2022/07/18 03:55:04;;;;;;;2.80;1.70;;;;;;;22.05;38.51;94234.53;5017459;28;20403;-92
2022/07/18 03:57:30;;;;;;;3.78;1.70;;;;;;;22.07;38.38;94231.25;4999781;28;20040;-93
2022/07/18 03:59:56;;;;;;;2.42;1.80;;;;;;;22.12;37.98;94238.69;4997872;28;20040;-92
2022/07/18 04:02:23;;;;;;;3.10;1.60;;;;;;;22.11;37.72;94245.47;4996950;28;20029;-95
2022/07/18 04:04:48;;;;;;;3.45;1.60;;;;;;;22.12;37.28;94235.94;5002839;28;20029;-93
2022/07/18 04:07:14;;;;;;;2.35;1.65;;;;;;;22.25;36.91;94247.09;4985670;28;20574;-93
2022/07/18 04:09:39;;;;;;;4.10;1.88;;;;;;;22.04;36.61;94235.03;5002630;28;20041;-93
2022/07/18 04:12:04;;;;;;;3.92;1.63;;;;;;;21.96;35.64;94232.06;5012751;28;20053;-91
2022/07/18 04:14:30;;;;;;;4.70;2.15;;;;;;;21.80;35.67;94232.97;4995022;28;20045;-94
2022/07/18 04:16:56;;;;;;;14.95;1.83;;;;;;;21.76;35.66;94233.25;5002151;28;20044;-92
2022/07/18 04:19:23;;;;;;;5.63;2.08;;;;;;;21.73;35.75;94236.28;4998397;28;20048;-93
2022/07/18 04:21:48;;;;;;;4.82;1.77;;;;;;;21.71;34.71;94233.28;4983551;28;20080;-92
2022/07/18 04:24:14;;;;;;;4.43;1.90;;;;;;;21.63;35.29;94235.84;4999094;28;20705;-95
2022/07/18 04:26:39;;;;;;;8.32;2.28;;;;;;;21.49;35.41;94234.19;4992204;28;20427;-92
2022/07/18 04:29:05;;;;;;;12.88;4.45;;;;;;;21.48;35.54;94230.69;5013313;28;20041;-92
2022/07/18 04:31:32;;;;;;;17.55;4.15;;;;;;;21.54;35.28;94227.91;4986352;28;20041;-92
2022/07/18 04:33:58;;;;;;;15.73;3.33;;;;;;;21.52;34.99;94235.94;4994142;28;20086;-89
2022/07/18 04:36:25;;;;;;;8.52;2.97;;;;;;;21.48;35.29;94227.94;5016700;28;20044;-95
2022/07/18 04:38:51;;;;;;;20.17;9.57;;;;;;;21.43;35.99;94230.75;5002417;28;20045;-91
2022/07/18 04:41:16;;;;;;;12.85;2.83;;;;;;;21.43;36.55;94233.50;5018933;28;20038;-88
2022/07/18 04:43:42;;;;;;;12.75;5.30;;;;;;;21.43;37.20;94228.75;4997194;28;20488;-95
2022/07/18 04:46:08;;;;;;;14.25;6.28;;;;;;;21.44;37.66;94227.47;4983911;28;20211;-90
2022/07/18 04:48:38;;;;;;;16.98;8.80;;;;;;;21.54;37.70;94233.41;5003287;28;20055;-92
2022/07/18 04:51:03;;;;;;;8.95;4.63;;;;;;;21.50;37.18;94232.94;5013297;28;20045;-94
2022/07/18 04:53:48;;;;;;;22.70;7.65;;;;;;;21.53;37.71;94221.66;5009032;28;20100;-93
2022/07/18 04:56:15;;;;;;;18.90;6.55;;;;;;;21.48;37.54;94229.94;5034513;28;20389;-94
2022/07/18 04:58:43;;;;;;;14.65;4.75;;;;;;;21.39;37.91;94235.78;4994096;28;20116;-93
2022/07/18 05:01:08;;;;;;;13.15;4.97;;;;;;;21.36;37.75;94226.53;4984892;28;20048;-91
2022/07/18 05:03:34;;;;;;;14.90;4.85;;;;;;;21.29;38.32;94220.84;5004779;28;20041;-91
2022/07/18 05:05:59;;;;;;;14.75;4.10;;;;;;;21.32;38.22;94230.81;4975533;28;20034;-91
2022/07/18 05:08:25;;;;;;;24.77;9.77;;;;;;;21.33;37.81;94230.31;4979061;28;20046;-93
2022/07/18 05:10:50;;;;;;;31.42;10.00;;;;;;;21.35;38.00;94236.06;4965789;28;20128;-94
2022/07/18 05:13:17;;;;;;;28.95;8.75;;;;;;;21.37;39.07;94233.53;4964449;28;20045;-94
2022/07/18 05:15:44;;;;;;;39.88;14.75;;;;;;;21.41;39.01;94225.03;4966311;28;20042;-92
2022/07/18 05:18:17;;;;;;;37.50;15.63;;;;;;;21.44;38.75;94232.22;4991584;28;20046;-93
2022/07/18 05:20:42;;;;;;;32.47;13.93;;;;;;;21.40;39.08;94224.28;4960023;28;20049;-93
2022/07/18 05:23:08;;;;;;;66.97;20.58;;;;;;;21.43;39.11;94233.50;4941440;28;20043;-92
2022/07/18 05:25:34;;;;;;;56.03;18.10;;;;;;;21.46;38.67;94227.72;4954291;28;20598;-90
2022/07/18 05:28:00;;;;;;;53.78;17.65;;;;;;;21.61;38.68;94227.38;4965790;28;20061;-92
2022/07/18 05:30:25;;;;;;;65.53;23.45;;;;;;;21.65;39.17;94224.34;4966618;28;20072;-94
2022/07/18 05:32:53;;;;;;;54.00;18.63;;;;;;;21.67;38.79;94227.31;4974503;28;20033;-92
2022/07/18 05:35:20;;;;;;;42.10;15.80;;;;;;;21.72;38.45;94226.53;4972917;28;20069;-93
2022/07/18 05:37:48;;;;;;;40.97;15.65;;;;;;;21.81;39.07;94232.47;4959981;28;20026;-93
2022/07/18 05:40:14;;;;;;;44.45;21.55;;;;;;;21.82;38.56;94222.19;4998471;28;20069;-93
2022/07/18 05:42:42;;;;;;;61.38;27.20;;;;;;;21.88;38.59;94226.38;5009439;28;20076;-92
2022/07/18 05:45:08;;;;;;;121.03;55.75;;;;;;;21.97;38.42;94225.31;4994431;28;20064;-93
2022/07/18 05:47:34;;;;;;;68.22;32.65;;;;;;;21.97;38.45;94219.03;4972794;28;20050;-92
2022/07/18 05:50:00;;;;;;;68.38;29.83;;;;;;;22.02;38.48;94227.28;5007738;28;20108;-90
2022/07/18 05:52:27;;;;;;;62.92;28.05;;;;;;;22.07;38.17;94221.00;4973740;28;20044;-93
2022/07/18 05:54:52;;;;;;;123.68;57.60;;;;;;;22.08;38.22;94219.72;5000442;28;20034;-91
2022/07/18 05:57:18;;;;;;;139.10;49.13;;;;;;;22.15;38.24;94227.41;4994796;28;20029;-94
2022/07/18 05:59:43;;;;;;;118.43;43.13;;;;;;;22.20;38.34;94226.59;4975616;28;20037;-92
2022/07/18 06:02:10;;;;;;;97.60;39.67;;;;;;;22.21;38.17;94230.09;4980753;28;20045;-90
2022/07/18 06:04:36;;;;;;;80.93;34.20;;;;;;;22.27;38.13;94232.81;4974946;28;20031;-90
2022/07/18 06:07:02;;;;;;;82.65;34.28;;;;;;;22.34;38.47;94230.22;4976924;28;20041;-93
2022/07/18 06:09:30;;;;;;;106.40;46.13;;;;;;;22.38;38.08;94238.19;4981163;28;20053;-90
2022/07/18 06:11:57;;;;;;;94.32;44.72;;;;;;;22.40;38.19;94235.66;4958955;28;20034;-89
2022/07/18 06:14:23;;;;;;;82.32;35.72;;;;;;;22.45;37.85;94237.63;4972090;28;20038;-92
2022/07/18 06:16:48;;;;;;;80.85;43.72;;;;;;;22.49;37.70;94227.06;4968202;28;20041;-89
2022/07/18 06:19:13;;;;;;;88.38;45.17;;;;;;;22.54;37.76;94229.00;4978482;28;20463;-89
2022/07/18 06:21:39;;;;;;;75.95;35.83;;;;;;;22.62;37.70;94234.69;4998205;28;20400;-89
2022/07/18 06:24:06;;;;;;;76.32;37.92;;;;;;;22.58;37.74;94232.94;5005791;28;20029;-92
2022/07/18 06:26:31;;;;;;;78.05;40.80;;;;;;;22.61;37.72;94233.94;4993089;28;20045;-94
2022/07/18 06:28:56;;;;;;;79.53;38.28;;;;;;;22.60;37.30;94235.19;4989580;28;20038;-89
2022/07/18 06:31:22;;;;;;;75.47;36.17;;;;;;;22.60;37.79;94229.69;4990893;28;20095;-89
2022/07/18 06:33:47;;;;;;;73.68;35.83;;;;;;;22.65;37.76;94228.88;5007007;28;20041;-91
2022/07/18 06:36:14;;;;;;;77.32;41.03;;;;;;;22.67;37.86;94237.38;4989043;28;20046;-90
2022/07/18 06:38:39;;;;;;;104.78;56.80;;;;;;;22.69;37.73;94218.31;5008730;28;20041;-92
2022/07/18 06:41:06;;;;;;;114.72;64.55;;;;;;;22.68;37.70;94222.31;4997202;28;20088;-88
2022/07/18 06:43:31;;;;;;;100.70;53.85;;;;;;;22.71;37.73;94218.53;5012457;28;20046;-89
2022/07/18 06:45:57;;;;;;;197.90;106.68;;;;;;;22.72;37.60;94219.28;4994971;28;20033;-90
2022/07/18 06:48:23;;;;;;;235.80;135.43;;;;;;;22.79;37.83;94232.50;5016786;28;20037;-93
2022/07/18 06:50:49;;;;;;;210.38;121.47;;;;;;;22.79;37.92;94229.72;4996582;28;20116;-93
2022/07/18 06:53:15;;;;;;;259.13;142.73;;;;;;;22.79;37.72;94229.72;5032411;28;20033;-89
2022/07/18 06:55:41;;;;;;;257.65;151.73;;;;;;;22.81;37.97;94233.47;4999729;28;20029;-88
2022/07/18 06:58:09;;;;;;;282.00;170.52;;;;;;;22.83;38.08;94241.97;5013772;28;20041;-89
2022/07/18 07:00:35;;;;;;;258.50;151.43;;;;;;;22.84;37.74;94237.94;5017874;28;20079;-87
2022/07/18 07:03:00;;;;;;;263.08;162.13;;;;;;;22.85;38.03;94235.94;5016114;28;20037;-94
2022/07/18 07:05:25;;;;;;;275.60;154.55;;;;;;;22.89;37.77;94233.63;5016827;28;20096;-90
2022/07/18 07:07:51;;;;;;;282.90;158.18;;;;;;;22.88;37.95;94235.63;5035808;28;20107;-92
2022/07/18 07:10:17;;;;;;;320.02;164.00;;;;;;;22.93;37.79;94236.09;5007106;28;20022;-88
2022/07/18 07:12:46;;;;;;;316.48;161.60;;;;;;;22.94;37.99;94234.84;4993361;28;20049;-90
2022/07/18 07:15:12;;;;;;;264.15;145.90;;;;;;;22.99;38.10;94228.47;5015120;28;20045;-90
2022/07/18 07:17:38;;;;;;;242.05;130.48;;;;;;;22.96;37.93;94229.50;5035596;28;20040;-92
2022/07/18 07:20:05;;;;;;;256.45;134.25;;;;;;;23.05;37.74;94232.66;5037467;28;20033;-91
2022/07/18 07:22:31;;;;;;;255.57;136.65;;;;;;;23.04;37.82;94233.19;5034059;28;20037;-95
2022/07/18 07:24:56;;;;;;;589.05;160.30;;;;;;;23.03;37.60;94228.94;5005536;28;20057;-89
2022/07/18 07:27:22;;;;;;;668.53;174.93;;;;;;;23.01;37.94;94228.69;5012805;28;20053;-92
2022/07/18 07:29:47;;;;;;;443.73;145.88;;;;;;;23.03;37.98;94228.94;5035141;28;20037;-93
2022/07/18 07:32:12;;;;;;;407.20;145.85;;;;;;;23.06;38.45;94230.66;5000171;28;20045;-91
2022/07/18 07:34:39;;;;;;;305.58;130.98;;;;;;;23.05;38.03;94223.63;5001465;28;20038;-91
2022/07/18 07:37:05;;;;;;;307.73;124.25;;;;;;;23.07;37.75;94227.38;5002377;28;20025;-92
2022/07/18 07:39:32;;;;;;;312.20;116.80;;;;;;;23.07;37.61;94223.88;5035467;28;20369;-92
2022/07/18 07:41:58;;;;;;;259.60;123.95;;;;;;;23.06;37.68;94236.16;5015506;28;20099;-94
2022/07/18 07:44:23;;;;;;;263.48;129.93;;;;;;;23.05;37.71;94229.16;5000618;28;20042;-92
2022/07/18 07:46:49;;;;;;;258.80;127.93;;;;;;;23.07;37.84;94230.13;4988085;28;20533;-93
2022/07/18 07:49:15;;;;;;;242.45;123.15;;;;;;;23.02;37.85;94232.94;4994099;28;20029;-94
2022/07/18 07:51:40;;;;;;;235.38;123.78;;;;;;;23.04;37.56;94235.94;4993673;28;20490;-92
2022/07/18 07:54:12;;;;;;;241.70;143.95;;;;;;;23.05;37.49;94237.44;4991254;28;20060;-91
2022/07/18 07:56:37;;;;;;;214.85;124.63;;;;;;;23.06;37.65;94239.66;5013874;28;20036;-93
2022/07/18 07:59:03;;;;;;;226.27;129.10;;;;;;;23.07;37.30;94237.66;5005992;28;20044;-92
2022/07/18 08:01:28;;;;;;;201.80;116.88;;;;;;;23.06;36.55;94247.94;5012925;28;20049;-92
2022/07/18 08:03:53;;;;;;;235.63;133.40;;;;;;;23.07;36.88;94235.66;4998379;28;20450;-92
2022/07/18 08:06:19;;;;;;;235.32;141.75;;;;;;;23.09;37.26;94235.13;5001130;28;20055;-92
2022/07/18 08:08:44;;;;;;;223.95;139.52;;;;;;;23.12;37.25;94240.34;5014650;28;20491;-92
2022/07/18 08:11:10;;;;;;;197.52;119.80;;;;;;;23.10;37.41;94233.84;5007291;28;20042;-94
2022/07/18 08:13:35;;;;;;;172.82;105.57;;;;;;;23.10;37.15;94228.34;4980703;28;20207;-90
2022/07/18 08:16:01;;;;;;;178.90;109.90;;;;;;;23.12;36.97;94237.59;5012058;28;20053;-91
2022/07/18 08:18:26;;;;;;;197.75;119.75;;;;;;;23.13;37.38;94233.56;5004257;28;20037;-95
2022/07/18 08:20:52;;;;;;;216.35;120.45;;;;;;;23.14;37.31;94240.56;5022039;28;20491;-95
2022/07/18 08:23:19;;;;;;;232.48;127.72;;;;;;;23.18;37.40;94231.97;5028780;28;20033;-91
2022/07/18 08:25:47;;;;;;;183.25;105.05;;;;;;;23.15;37.49;94239.31;5001029;28;20094;-93
2022/07/18 08:28:12;;;;;;;167.50;99.70;;;;;;;23.14;37.37;94243.34;5004176;28;20033;-95
2022/07/18 08:30:38;;;;;;;183.27;101.05;;;;;;;23.17;37.40;94247.03;5020692;28;20056;-94
2022/07/18 08:33:05;;;;;;;181.90;101.45;;;;;;;23.18;37.47;94240.25;5009354;28;20091;-93
2022/07/18 08:35:32;;;;;;;181.40;99.30;;;;;;;23.17;37.53;94245.03;5002700;28;20041;-93
2022/07/18 08:37:58;;;;;;;178.68;94.40;;;;;;;23.19;37.56;94241.75;5006912;28;20029;-94
2022/07/18 08:40:23;;;;;;;168.55;94.82;;;;;;;23.18;37.58;94243.75;5018039;28;20098;-93
2022/07/18 08:42:52;;;;;;;171.45;91.35;;;;;;;23.18;37.60;94240.25;4998229;28;20460;-93
2022/07/18 08:45:23;;;;;;;166.43;93.80;;;;;;;23.18;37.56;94237.50;5002856;28;20440;-93
2022/07/18 08:47:51;;;;;;;149.32;86.03;;;;;;;23.17;37.85;94239.50;5006293;28;20049;-93
2022/07/18 08:50:17;;;;;;;134.90;79.32;;;;;;;23.18;37.67;94245.75;5004999;28;20055;-90
2022/07/18 08:52:43;;;;;;;133.27;79.65;;;;;;;23.21;37.90;94239.22;5033772;28;20061;-92
2022/07/18 08:55:08;;;;;;;157.98;87.30;;;;;;;23.19;38.06;94245.25;5032228;28;20090;-93
2022/07/18 08:57:34;;;;;;;145.02;81.15;;;;;;;23.22;37.85;94243.47;5018515;28;20033;-92
2022/07/18 08:59:59;;;;;;;196.55;92.53;;;;;;;23.23;38.00;94244.94;5020896;28;20033;-92
2022/07/18 09:02:26;;;;;;;193.65;89.43;;;;;;;23.23;37.90;94240.19;5034166;28;20037;-91
2022/07/18 09:04:51;;;;;;;172.40;82.40;;;;;;;23.22;37.75;94241.44;5002474;28;20552;-93
2022/07/18 09:07:27;;;;;;;180.88;110.57;;;;;;;23.22;37.91;94243.47;4996190;28;20348;-91
2022/07/18 09:10:04;;;;;;;186.95;108.75;;;;;;;23.23;37.71;94242.19;5004640;28;20044;-93
2022/07/18 09:12:31;;;;;;;206.40;111.72;;;;;;;23.26;37.56;94232.88;5018982;28;20089;-92
2022/07/18 09:15:03;;;;;;;244.00;129.48;;;;;;;23.27;38.02;94236.38;5011445;28;20041;-93
2022/07/18 09:17:29;;;;;;;272.02;144.07;;;;;;;23.31;37.87;94239.59;5019640;28;20075;-94
2022/07/18 09:20:10;;;;;;;257.58;152.93;;;;;;;23.27;37.99;94239.13;5003065;28;20025;-93
2022/07/18 09:22:37;;;;;;;254.57;144.52;;;;;;;23.31;37.97;94242.34;5001209;28;20055;-93
2022/07/18 09:25:11;;;;;;;258.25;155.73;;;;;;;23.29;37.97;94229.06;5001623;28;20051;-92
2022/07/18 09:27:50;;;;;;;251.77;140.82;;;;;;;23.29;37.96;94233.84;5018779;28;20037;-91
2022/07/18 09:30:28;;;;;;;395.15;174.25;;;;;;;23.30;38.04;94230.56;5019667;28;20041;-92
2022/07/18 09:33:03;;;;;;;396.27;161.73;;;;;;;23.31;37.98;94229.31;5022148;28;20041;-92
2022/07/18 09:35:30;;;;;;;397.63;164.95;;;;;;;23.37;38.20;94231.97;5031024;28;20033;-94
2022/07/18 09:37:57;;;;;;;369.92;156.90;;;;;;;23.34;38.03;94233.78;4996700;28;20399;-94
2022/07/18 09:40:27;;;;;;;331.17;151.75;;;;;;;23.33;38.16;94229.53;5015705;28;20041;-89
2022/07/18 09:42:54;;;;;;;319.03;142.53;;;;;;;23.34;38.51;94231.00;4996411;28;20029;-93
2022/07/18 09:45:30;;;;;;;347.90;149.98;;;;;;;23.32;38.33;94228.03;5015574;28;20029;-93
2022/07/18 09:48:08;;;;;;;332.08;143.95;;;;;;;23.32;38.70;94235.56;5045133;28;20407;-94
2022/07/18 09:50:35;;;;;;;299.75;138.02;;;;;;;23.35;38.64;94234.53;5016043;28;20052;-93
2022/07/18 09:53:04;;;;;;;282.60;133.27;;;;;;;23.34;38.59;94238.53;5002554;28;20025;-94
2022/07/18 09:55:32;;;;;;;269.70;135.95;;;;;;;23.35;38.36;94229.75;5005073;28;20040;-92
2022/07/18 09:57:59;;;;;;;263.77;133.10;;;;;;;23.33;38.70;94240.56;5012687;28;20021;-94
2022/07/18 10:00:28;;;;;;;274.48;131.38;;;;;;;23.35;38.63;94232.50;5001306;28;20538;-94
2022/07/18 10:02:56;;;;;;;352.58;133.13;;;;;;;23.36;38.56;94233.25;5015769;28;20601;-96
2022/07/18 10:05:22;;;;;;;257.90;123.57;;;;;;;23.33;38.75;94237.06;4990009;28;20137;-94
2022/07/18 10:07:47;;;;;;;260.75;125.57;;;;;;;23.34;38.58;94235.78;4933302;28;20039;-95
2022/07/18 10:10:15;;;;;;;254.40;124.47;;;;;;;23.34;38.82;94239.28;4940452;28;20054;-94
2022/07/18 10:12:41;;;;;;;234.18;111.88;;;;;;;23.35;38.92;94237.28;4956495;28;20120;-95
2022/07/18 10:15:07;;;;;;;222.88;108.70;;;;;;;23.34;38.74;94244.06;4957064;28;20042;-94
2022/07/18 10:17:32;;;;;;;190.07;104.03;;;;;;;23.35;38.63;94237.28;4951254;28;20066;-94
2022/07/18 10:20:06;;;;;;;87.25;42.55;;;;;;;23.38;36.28;94234.22;4972020;28;20039;-90
2022/07/18 10:22:38;;;;;;;969.30;514.50;;;;;;;23.37;37.46;94231.97;4953286;28;20414;-92
2022/07/18 10:25:05;;;;;;;431.23;227.05;;;;;;;23.42;37.32;94240.16;4936724;28;20053;-91
2022/07/18 10:27:48;;;;;;;163.55;46.00;;;;;;;23.47;37.61;94238.59;4936328;28;20054;-91
2022/07/18 10:30:14;;;;;;;167.57;52.05;;;;;;;23.50;37.47;94237.56;4924897;28;20046;-90
2022/07/18 10:32:39;;;;;;;134.25;52.22;;;;;;;23.51;37.95;94234.25;4949052;28;20092;-90
2022/07/18 10:35:06;;;;;;;128.65;48.33;;;;;;;23.53;36.30;94239.28;4925184;28;20039;-94
2022/07/18 10:37:35;;;;;;;84.35;33.28;;;;;;;23.51;36.94;94233.53;4983959;28;20052;-94
2022/07/18 10:40:24;;;;;;;112.55;50.30;;;;;;;23.48;37.58;94227.03;4962033;28;20507;-95
2022/07/18 10:43:28;;;;;;;57.92;25.15;;;;;;;23.52;37.05;94229.53;5009676;28;20504;-90
2022/07/18 10:45:54;;;;;;;69.55;31.27;;;;;;;23.53;36.93;94228.25;5009637;28;20492;-91
2022/07/18 10:48:37;;;;;;;47.63;23.10;;;;;;;23.54;37.37;94219.44;4976574;28;20045;-95
2022/07/18 10:51:05;;;;;;;49.80;25.73;;;;;;;23.55;37.26;94220.19;4990386;28;20042;-94
2022/07/18 10:53:56;;;;;;;95.88;50.00;;;;;;;23.48;37.70;94218.75;4998906;28;20018;-95
2022/07/18 10:56:28;;;;;;;96.03;47.60;;;;;;;23.49;37.88;94217.47;5035866;28;20124;-94
2022/07/18 10:58:58;;;;;;;101.15;53.75;;;;;;;23.46;38.09;94217.78;5017990;28;20068;-93
2022/07/18 11:01:24;;;;;;;157.98;77.88;;;;;;;23.48;38.39;94218.75;5003300;28;20388;-88
2022/07/18 11:03:50;;;;;;;104.60;58.10;;;;;;;23.44;38.20;94218.31;5002219;28;20087;-90
2022/07/18 11:06:15;;;;;;;118.20;64.10;;;;;;;23.46;38.31;94221.28;5008369;28;20038;-92
2022/07/18 11:08:41;;;;;;;149.77;70.53;;;;;;;23.45;38.33;94214.28;5011922;28;20025;-90
2022/07/18 11:11:07;;;;;;;120.43;60.03;;;;;;;23.48;38.59;94213.22;4997638;28;20060;-93
2022/07/18 11:13:37;;;;;;;85.63;40.50;;;;;;;23.53;39.04;94208.94;5036479;28;20043;-94
2022/07/18 11:16:21;;;;;;;113.97;45.28;;;;;;;23.56;38.98;94214.16;5025979;28;20105;-91
2022/07/18 11:18:47;;;;;;;189.68;76.63;;;;;;;23.57;39.00;94214.91;5050545;28;20083;-93
2022/07/18 11:21:19;;;;;;;222.70;102.53;;;;;;;23.53;38.68;94206.19;5047917;28;20037;-93